sensor_id;sensor_type;location;lat;lon;timestamp;pressure;altitude;pressure_sealevel;temperature;humidity
50859;BME280;36826;47.514;19.056;2023-02-02T00:01:09;99832.00;;;13.53;54.54
50859;BME280;36826;47.514;19.056;2023-02-02T00:03:35;99850.03;;;13.26;54.65
50859;BME280;36826;47.514;19.056;2023-02-02T00:06:01;99842.63;;;12.58;56.01
50859;BME280;36826;47.514;19.056;2023-02-02T00:08:28;99849.97;;;13.44;55.40
50859;BME280;36826;47.514;19.056;2023-02-02T00:10:53;99839.47;;;12.98;56.33
50859;BME280;36826;47.514;19.056;2023-02-02T00:13:19;99847.44;;;13.08;56.93
50859;BME280;36826;47.514;19.056;2023-02-02T00:15:44;99854.28;;;12.94;56.63
50859;BME280;36826;47.514;19.056;2023-02-02T00:18:09;99853.41;;;13.28;57.43
50859;BME280;36826;47.514;19.056;2023-02-02T00:20:34;99851.69;;;13.10;57.27
50859;BME280;36826;47.514;19.056;2023-02-02T00:23:00;99855.69;;;13.06;56.60
50859;BME280;36826;47.514;19.056;2023-02-02T00:25:26;99845.31;;;13.19;56.71
50859;BME280;36826;47.514;19.056;2023-02-02T00:27:51;99845.25;;;13.11;57.13
50859;BME280;36826;47.514;19.056;2023-02-02T00:30:16;99843.31;;;13.22;57.12
50859;BME280;36826;47.514;19.056;2023-02-02T00:32:42;99836.38;;;13.45;55.99
50859;BME280;36826;47.514;19.056;2023-02-02T00:35:07;99802.81;;;13.74;55.99
50859;BME280;36826;47.514;19.056;2023-02-02T00:37:33;99783.63;;;14.02;54.85
50859;BME280;36826;47.514;19.056;2023-02-02T00:39:58;99790.34;;;14.15;55.77
50859;BME280;36826;47.514;19.056;2023-02-02T00:42:23;99785.00;;;13.30;56.09
50859;BME280;36826;47.514;19.056;2023-02-02T00:44:49;99772.84;;;13.69;55.81
50859;BME280;36826;47.514;19.056;2023-02-02T00:47:32;99760.56;;;13.75;55.56
50859;BME280;36826;47.514;19.056;2023-02-02T00:49:58;99783.69;;;13.34;55.05
50859;BME280;36826;47.514;19.056;2023-02-02T00:52:23;99799.91;;;13.16;54.89
50859;BME280;36826;47.514;19.056;2023-02-02T00:54:48;99792.59;;;13.35;54.91
50859;BME280;36826;47.514;19.056;2023-02-02T00:57:14;99798.13;;;12.91;54.86
50859;BME280;36826;47.514;19.056;2023-02-02T00:59:40;99804.59;;;13.06;54.70
50859;BME280;36826;47.514;19.056;2023-02-02T01:02:05;99803.75;;;12.71;55.37
50859;BME280;36826;47.514;19.056;2023-02-02T01:04:30;99805.09;;;13.10;54.58
50859;BME280;36826;47.514;19.056;2023-02-02T01:06:56;99823.84;;;12.40;55.82
50859;BME280;36826;47.514;19.056;2023-02-02T01:09:21;99823.09;;;13.09;54.42
50859;BME280;36826;47.514;19.056;2023-02-02T01:11:46;99816.22;;;12.80;54.71
50859;BME280;36826;47.514;19.056;2023-02-02T01:14:12;99814.72;;;12.07;54.94
50859;BME280;36826;47.514;19.056;2023-02-02T01:16:37;99805.31;;;12.29;55.50
50859;BME280;36826;47.514;19.056;2023-02-02T01:19:02;99805.78;;;12.77;55.04
50859;BME280;36826;47.514;19.056;2023-02-02T01:21:28;99789.56;;;12.61;54.82
50859;BME280;36826;47.514;19.056;2023-02-02T01:23:53;99789.78;;;12.41;55.24
50859;BME280;36826;47.514;19.056;2023-02-02T01:26:18;99803.00;;;12.61;54.82
50859;BME280;36826;47.514;19.056;2023-02-02T01:28:44;99808.72;;;12.39;54.96
50859;BME280;36826;47.514;19.056;2023-02-02T01:31:10;99818.81;;;11.83;56.05
50859;BME280;36826;47.514;19.056;2023-02-02T01:33:36;99818.38;;;12.50;54.86
50859;BME280;36826;47.514;19.056;2023-02-02T01:36:06;99827.25;;;12.24;55.74
50859;BME280;36826;47.514;19.056;2023-02-02T01:38:31;99828.50;;;12.12;54.65
50859;BME280;36826;47.514;19.056;2023-02-02T01:40:57;99839.94;;;12.58;54.36
50859;BME280;36826;47.514;19.056;2023-02-02T01:46:10;99812.97;;;11.70;54.87
50859;BME280;36826;47.514;19.056;2023-02-02T01:48:35;99804.19;;;12.66;53.40
50859;BME280;36826;47.514;19.056;2023-02-02T01:51:03;99804.31;;;12.30;53.60
50859;BME280;36826;47.514;19.056;2023-02-02T01:53:29;99792.22;;;13.22;52.02
50859;BME280;36826;47.514;19.056;2023-02-02T01:55:54;99798.72;;;12.76;52.21
50859;BME280;36826;47.514;19.056;2023-02-02T01:58:24;99807.22;;;12.98;52.70
50859;BME280;36826;47.514;19.056;2023-02-02T02:00:50;99793.13;;;11.80;54.04
50859;BME280;36826;47.514;19.056;2023-02-02T02:03:16;99786.78;;;12.44;52.77
50859;BME280;36826;47.514;19.056;2023-02-02T02:06:04;99774.41;;;13.20;51.10
50859;BME280;36826;47.514;19.056;2023-02-02T02:08:30;99781.63;;;12.85;52.17
50859;BME280;36826;47.514;19.056;2023-02-02T02:10:57;99784.56;;;12.66;52.21
50859;BME280;36826;47.514;19.056;2023-02-02T02:13:23;99782.09;;;13.15;51.67
50859;BME280;36826;47.514;19.056;2023-02-02T02:27:19;99762.47;;;13.23;51.99
50859;BME280;36826;47.514;19.056;2023-02-02T02:42:24;99790.78;;;13.44;51.86
50859;BME280;36826;47.514;19.056;2023-02-02T02:44:52;99800.47;;;13.96;51.57
50859;BME280;36826;47.514;19.056;2023-02-02T02:47:18;99800.63;;;13.27;52.15
50859;BME280;36826;47.514;19.056;2023-02-02T02:49:45;99796.41;;;13.67;51.83
50859;BME280;36826;47.514;19.056;2023-02-02T02:52:11;99800.75;;;13.60;51.85
50859;BME280;36826;47.514;19.056;2023-02-02T02:54:37;99811.66;;;13.58;51.68
50859;BME280;36826;47.514;19.056;2023-02-02T03:08:09;99806.34;;;13.83;51.36
50859;BME280;36826;47.514;19.056;2023-02-02T03:10:27;99810.16;;;13.56;51.91
50859;BME280;36826;47.514;19.056;2023-02-02T03:12:54;99814.91;;;13.70;51.93
50859;BME280;36826;47.514;19.056;2023-02-02T03:15:20;99804.78;;;13.56;52.02
50859;BME280;36826;47.514;19.056;2023-02-02T03:17:46;99809.47;;;13.45;52.12
50859;BME280;36826;47.514;19.056;2023-02-02T03:20:12;99815.44;;;13.31;52.32
50859;BME280;36826;47.514;19.056;2023-02-02T03:22:37;99811.56;;;13.33;52.58
50859;BME280;36826;47.514;19.056;2023-02-02T03:25:03;99803.44;;;13.17;52.50
50859;BME280;36826;47.514;19.056;2023-02-02T03:27:28;99805.59;;;13.48;52.01
50859;BME280;36826;47.514;19.056;2023-02-02T03:29:54;99807.72;;;13.36;52.48
50859;BME280;36826;47.514;19.056;2023-02-02T03:32:19;99809.69;;;13.26;52.77
50859;BME280;36826;47.514;19.056;2023-02-02T03:34:45;99798.91;;;13.09;53.44
50859;BME280;36826;47.514;19.056;2023-02-02T03:37:10;99800.09;;;13.15;53.28
50859;BME280;36826;47.514;19.056;2023-02-02T03:39:35;99810.00;;;13.14;53.04
50859;BME280;36826;47.514;19.056;2023-02-02T03:42:01;99804.00;;;13.29;53.06
50859;BME280;36826;47.514;19.056;2023-02-02T03:44:26;99791.44;;;12.95;52.72
50859;BME280;36826;47.514;19.056;2023-02-02T03:46:54;99792.72;;;12.56;53.54
50859;BME280;36826;47.514;19.056;2023-02-02T03:49:20;99796.22;;;12.74;53.46
50859;BME280;36826;47.514;19.056;2023-02-02T03:51:45;99815.81;;;12.67;53.24
50859;BME280;36826;47.514;19.056;2023-02-02T03:54:10;99809.38;;;11.97;54.18
50859;BME280;36826;47.514;19.056;2023-02-02T03:56:36;99817.69;;;12.48;53.67
50859;BME280;36826;47.514;19.056;2023-02-02T03:59:01;99796.63;;;12.35;53.42
50859;BME280;36826;47.514;19.056;2023-02-02T04:01:27;99806.03;;;12.39;53.55
50859;BME280;36826;47.514;19.056;2023-02-02T04:03:53;99791.09;;;12.37;53.55
50859;BME280;36826;47.514;19.056;2023-02-02T04:06:18;99777.75;;;12.45;52.85
50859;BME280;36826;47.514;19.056;2023-02-02T04:08:44;99769.44;;;12.12;54.09
50859;BME280;36826;47.514;19.056;2023-02-02T04:11:10;99774.97;;;12.37;53.18
50859;BME280;36826;47.514;19.056;2023-02-02T04:13:35;99765.00;;;12.03;53.85
50859;BME280;36826;47.514;19.056;2023-02-02T04:16:00;99745.78;;;12.16;53.62
50859;BME280;36826;47.514;19.056;2023-02-02T04:18:26;99749.72;;;12.03;53.55
50859;BME280;36826;47.514;19.056;2023-02-02T04:20:57;99760.56;;;11.93;53.71
50859;BME280;36826;47.514;19.056;2023-02-02T04:23:23;99759.63;;;11.66;53.52
50859;BME280;36826;47.514;19.056;2023-02-02T04:25:49;99772.50;;;12.17;53.11
50859;BME280;36826;47.514;19.056;2023-02-02T04:28:15;99766.06;;;12.10;53.23
50859;BME280;36826;47.514;19.056;2023-02-02T04:30:40;99762.25;;;12.12;52.93
50859;BME280;36826;47.514;19.056;2023-02-02T04:33:06;99768.34;;;11.69;53.77
50859;BME280;36826;47.514;19.056;2023-02-02T04:35:31;99773.28;;;11.55;54.12
50859;BME280;36826;47.514;19.056;2023-02-02T04:37:56;99757.31;;;11.72;53.47
50859;BME280;36826;47.514;19.056;2023-02-02T04:40:21;99777.25;;;11.51;54.15
50859;BME280;36826;47.514;19.056;2023-02-02T04:42:47;99772.19;;;11.84;52.85
50859;BME280;36826;47.514;19.056;2023-02-02T04:45:12;99780.41;;;11.82;53.26
50859;BME280;36826;47.514;19.056;2023-02-02T04:47:37;99779.94;;;11.87;52.86
50859;BME280;36826;47.514;19.056;2023-02-02T04:50:03;99777.03;;;11.62;53.40
50859;BME280;36826;47.514;19.056;2023-02-02T04:52:28;99764.88;;;11.22;53.90
50859;BME280;36826;47.514;19.056;2023-02-02T04:54:54;99781.56;;;11.80;53.38
50859;BME280;36826;47.514;19.056;2023-02-02T04:57:19;99775.97;;;11.55;52.99
50859;BME280;36826;47.514;19.056;2023-02-02T04:59:44;99784.25;;;11.80;52.42
50859;BME280;36826;47.514;19.056;2023-02-02T05:02:10;99783.84;;;11.75;52.27
50859;BME280;36826;47.514;19.056;2023-02-02T05:04:35;99784.16;;;12.52;51.00
50859;BME280;36826;47.514;19.056;2023-02-02T05:07:00;99793.69;;;12.47;51.23
50859;BME280;36826;47.514;19.056;2023-02-02T05:09:25;99789.00;;;11.22;52.67
50859;BME280;36826;47.514;19.056;2023-02-02T05:11:51;99790.59;;;11.15;52.95
50859;BME280;36826;47.514;19.056;2023-02-02T05:14:16;99801.56;;;11.86;51.64
50859;BME280;36826;47.514;19.056;2023-02-02T05:16:43;99809.66;;;12.04;51.54
50859;BME280;36826;47.514;19.056;2023-02-02T05:19:09;99818.25;;;12.52;50.42
50859;BME280;36826;47.514;19.056;2023-02-02T05:21:35;99839.59;;;11.81;51.76
50859;BME280;36826;47.514;19.056;2023-02-02T05:24:00;99842.81;;;11.66;51.57
50859;BME280;36826;47.514;19.056;2023-02-02T05:26:26;99862.78;;;11.54;52.15
50859;BME280;36826;47.514;19.056;2023-02-02T05:28:52;99861.84;;;11.91;51.49
50859;BME280;36826;47.514;19.056;2023-02-02T05:31:18;99858.00;;;12.48;50.53
50859;BME280;36826;47.514;19.056;2023-02-02T05:33:43;99876.06;;;12.02;51.41
50859;BME280;36826;47.514;19.056;2023-02-02T05:36:09;99875.28;;;12.27;50.75
50859;BME280;36826;47.514;19.056;2023-02-02T05:38:34;99883.00;;;11.94;50.15
50859;BME280;36826;47.514;19.056;2023-02-02T05:41:00;99883.16;;;12.92;49.66
50859;BME280;36826;47.514;19.056;2023-02-02T05:43:26;99877.66;;;12.49;49.79
50859;BME280;36826;47.514;19.056;2023-02-02T05:45:52;99893.44;;;12.34;50.25
50859;BME280;36826;47.514;19.056;2023-02-02T05:48:18;99889.66;;;12.18;50.44
50859;BME280;36826;47.514;19.056;2023-02-02T05:50:44;99904.00;;;12.45;49.13
50859;BME280;36826;47.514;19.056;2023-02-02T05:53:11;99908.69;;;12.69;49.22
50859;BME280;36826;47.514;19.056;2023-02-02T05:55:38;99896.59;;;12.47;49.61
50859;BME280;36826;47.514;19.056;2023-02-02T05:58:03;99907.28;;;11.75;50.31
50859;BME280;36826;47.514;19.056;2023-02-02T06:00:28;99895.53;;;12.40;49.61
50859;BME280;36826;47.514;19.056;2023-02-02T06:02:54;99891.41;;;12.09;50.26
50859;BME280;36826;47.514;19.056;2023-02-02T06:05:19;99899.28;;;12.29;50.25
50859;BME280;36826;47.514;19.056;2023-02-02T06:07:44;99898.06;;;12.05;50.71
50859;BME280;36826;47.514;19.056;2023-02-02T06:10:10;99881.72;;;12.35;49.67
50859;BME280;36826;47.514;19.056;2023-02-02T06:12:35;99876.34;;;11.99;50.19
50859;BME280;36826;47.514;19.056;2023-02-02T06:15:00;99867.31;;;12.00;50.41
50859;BME280;36826;47.514;19.056;2023-02-02T06:17:26;99869.94;;;12.09;49.84
50859;BME280;36826;47.514;19.056;2023-02-02T06:19:51;99873.41;;;11.46;50.94
50859;BME280;36826;47.514;19.056;2023-02-02T06:22:16;99874.53;;;11.99;50.55
50859;BME280;36826;47.514;19.056;2023-02-02T06:24:42;99872.69;;;12.00;50.21
50859;BME280;36826;47.514;19.056;2023-02-02T06:27:07;99878.31;;;11.96;50.63
50859;BME280;36826;47.514;19.056;2023-02-02T06:29:32;99867.16;;;12.01;50.18
50859;BME280;36826;47.514;19.056;2023-02-02T06:31:58;99871.88;;;11.89;50.19
50859;BME280;36826;47.514;19.056;2023-02-02T06:34:23;99871.66;;;11.82;50.50
50859;BME280;36826;47.514;19.056;2023-02-02T06:36:48;99860.97;;;12.63;48.83
50859;BME280;36826;47.514;19.056;2023-02-02T06:39:13;99851.31;;;14.24;46.42
50859;BME280;36826;47.514;19.056;2023-02-02T06:41:39;99854.03;;;16.93;42.23
50859;BME280;36826;47.514;19.056;2023-02-02T06:44:04;99841.03;;;18.71;38.79
50859;BME280;36826;47.514;19.056;2023-02-02T06:46:29;99851.91;;;19.07;38.12
50859;BME280;36826;47.514;19.056;2023-02-02T06:48:55;99853.16;;;18.76;38.38
50859;BME280;36826;47.514;19.056;2023-02-02T06:51:20;99851.09;;;20.50;35.96
50859;BME280;36826;47.514;19.056;2023-02-02T06:53:46;99850.75;;;21.39;34.82
50859;BME280;36826;47.514;19.056;2023-02-02T06:56:12;99850.59;;;23.13;32.02
50859;BME280;36826;47.514;19.056;2023-02-02T06:58:37;99856.84;;;23.39;31.69
50859;BME280;36826;47.514;19.056;2023-02-02T07:01:07;99858.94;;;24.04;30.56
50859;BME280;36826;47.514;19.056;2023-02-02T07:03:32;99862.69;;;23.24;30.34
50859;BME280;36826;47.514;19.056;2023-02-02T07:05:58;99859.78;;;23.56;30.90
50859;BME280;36826;47.514;19.056;2023-02-02T07:08:23;99877.22;;;25.94;28.39
50859;BME280;36826;47.514;19.056;2023-02-02T07:10:48;99870.03;;;26.85;27.40
50859;BME280;36826;47.514;19.056;2023-02-02T07:13:14;99891.50;;;26.71;27.08
50859;BME280;36826;47.514;19.056;2023-02-02T07:15:39;99890.41;;;28.17;26.09
50859;BME280;36826;47.514;19.056;2023-02-02T07:18:05;99896.66;;;29.59;24.49
50859;BME280;36826;47.514;19.056;2023-02-02T07:20:30;99894.56;;;29.28;24.52
50859;BME280;36826;47.514;19.056;2023-02-02T07:22:56;99916.75;;;29.06;24.31
50859;BME280;36826;47.514;19.056;2023-02-02T07:25:21;99943.66;;;28.28;25.32
50859;BME280;36826;47.514;19.056;2023-02-02T07:27:46;99955.03;;;29.93;23.68
50859;BME280;36826;47.514;19.056;2023-02-02T07:30:12;99954.47;;;31.88;22.39
50859;BME280;36826;47.514;19.056;2023-02-02T07:32:37;99963.25;;;32.00;21.85
50859;BME280;36826;47.514;19.056;2023-02-02T07:35:02;99969.00;;;31.38;22.11
50859;BME280;36826;47.514;19.056;2023-02-02T07:37:28;99971.47;;;33.00;21.12
50859;BME280;36826;47.514;19.056;2023-02-02T07:39:53;99986.56;;;29.97;22.99
50859;BME280;36826;47.514;19.056;2023-02-02T07:42:18;99981.72;;;32.65;20.95
50859;BME280;36826;47.514;19.056;2023-02-02T07:44:44;99979.81;;;32.16;21.05
50859;BME280;36826;47.514;19.056;2023-02-02T07:47:09;99977.06;;;32.61;21.37
50859;BME280;36826;47.514;19.056;2023-02-02T07:49:34;99983.09;;;35.47;19.86
50859;BME280;36826;47.514;19.056;2023-02-02T07:52:00;99971.44;;;33.05;20.36
50859;BME280;36826;47.514;19.056;2023-02-02T07:54:25;99968.97;;;34.97;19.94
50859;BME280;36826;47.514;19.056;2023-02-02T07:56:50;99960.63;;;33.33;20.06
50859;BME280;36826;47.514;19.056;2023-02-02T07:59:15;99956.44;;;33.07;20.30
50859;BME280;36826;47.514;19.056;2023-02-02T08:01:41;99956.84;;;33.73;20.16
50859;BME280;36826;47.514;19.056;2023-02-02T08:04:06;99962.47;;;33.68;20.17
50859;BME280;36826;47.514;19.056;2023-02-02T08:06:32;99972.69;;;33.96;20.28
50859;BME280;36826;47.514;19.056;2023-02-02T08:08:59;99951.91;;;30.95;21.66
50859;BME280;36826;47.514;19.056;2023-02-02T08:11:25;99942.56;;;32.37;20.54
50859;BME280;36826;47.514;19.056;2023-02-02T08:13:52;99961.19;;;31.71;20.62
50859;BME280;36826;47.514;19.056;2023-02-02T08:16:17;99965.16;;;30.56;22.10
50859;BME280;36826;47.514;19.056;2023-02-02T08:18:43;99964.88;;;30.99;21.96
50859;BME280;36826;47.514;19.056;2023-02-02T08:21:09;99955.13;;;30.14;21.61
50859;BME280;36826;47.514;19.056;2023-02-02T08:23:35;99960.84;;;26.95;24.01
50859;BME280;36826;47.514;19.056;2023-02-02T08:26:08;99966.34;;;27.91;23.78
50859;BME280;36826;47.514;19.056;2023-02-02T08:28:34;99967.94;;;25.76;25.66
50859;BME280;36826;47.514;19.056;2023-02-02T08:31:19;99973.75;;;27.46;24.99
50859;BME280;36826;47.514;19.056;2023-02-02T08:33:45;99960.41;;;26.70;24.97
50859;BME280;36826;47.514;19.056;2023-02-02T08:36:11;99951.25;;;26.18;25.04
50859;BME280;36826;47.514;19.056;2023-02-02T08:38:37;99957.69;;;26.87;25.36
50859;BME280;36826;47.514;19.056;2023-02-02T08:41:06;99952.50;;;29.76;23.17
50859;BME280;36826;47.514;19.056;2023-02-02T08:43:32;99952.03;;;29.42;22.88
50859;BME280;36826;47.514;19.056;2023-02-02T08:45:57;99952.13;;;26.82;24.91
50859;BME280;36826;47.514;19.056;2023-02-02T08:48:23;99952.47;;;26.10;25.67
50859;BME280;36826;47.514;19.056;2023-02-02T08:50:52;99943.69;;;24.96;26.39
50859;BME280;36826;47.514;19.056;2023-02-02T08:53:18;99964.34;;;23.88;27.54
50859;BME280;36826;47.514;19.056;2023-02-02T08:55:43;99957.75;;;21.87;28.62
50859;BME280;36826;47.514;19.056;2023-02-02T08:58:08;99973.16;;;22.06;29.48
50859;BME280;36826;47.514;19.056;2023-02-02T09:00:34;99965.03;;;19.98;30.57
50859;BME280;36826;47.514;19.056;2023-02-02T09:02:59;99975.38;;;19.81;31.39
50859;BME280;36826;47.514;19.056;2023-02-02T09:05:25;99975.72;;;19.29;31.99
50859;BME280;36826;47.514;19.056;2023-02-02T09:07:50;99975.22;;;19.89;31.92
50859;BME280;36826;47.514;19.056;2023-02-02T09:10:15;99978.66;;;18.84;32.78
50859;BME280;36826;47.514;19.056;2023-02-02T09:12:41;99987.69;;;19.13;33.00
50859;BME280;36826;47.514;19.056;2023-02-02T09:15:06;99978.09;;;19.46;32.51
50859;BME280;36826;47.514;19.056;2023-02-02T09:17:31;99995.44;;;19.16;33.31
50859;BME280;36826;47.514;19.056;2023-02-02T09:19:57;99996.97;;;19.89;32.07
50859;BME280;36826;47.514;19.056;2023-02-02T09:22:22;99985.31;;;19.32;31.87
50859;BME280;36826;47.514;19.056;2023-02-02T09:24:48;99985.84;;;19.49;31.92
50859;BME280;36826;47.514;19.056;2023-02-02T09:27:13;99992.78;;;18.95;32.82
50859;BME280;36826;47.514;19.056;2023-02-02T09:29:38;99995.06;;;19.20;32.54
50859;BME280;36826;47.514;19.056;2023-02-02T09:32:04;99982.19;;;19.07;32.21
50859;BME280;36826;47.514;19.056;2023-02-02T09:34:29;99980.81;;;19.46;32.00
50859;BME280;36826;47.514;19.056;2023-02-02T09:36:54;99979.97;;;18.08;33.56
50859;BME280;36826;47.514;19.056;2023-02-02T09:39:20;99978.34;;;18.51;33.13
50859;BME280;36826;47.514;19.056;2023-02-02T09:49:34;99998.38;;;17.68;34.08
50859;BME280;36826;47.514;19.056;2023-02-02T09:52:04;99983.72;;;18.44;33.13
50859;BME280;36826;47.514;19.056;2023-02-02T09:54:33;99998.59;;;18.33;33.49
50859;BME280;36826;47.514;19.056;2023-02-02T09:57:03;99994.97;;;17.21;34.38
50859;BME280;36826;47.514;19.056;2023-02-02T09:59:33;99994.94;;;17.44;34.24
50859;BME280;36826;47.514;19.056;2023-02-02T10:02:04;100008.09;;;17.47;34.49
50859;BME280;36826;47.514;19.056;2023-02-02T10:04:36;100008.34;;;17.23;34.70
50859;BME280;36826;47.514;19.056;2023-02-02T10:07:11;100015.69;;;16.44;35.52
50859;BME280;36826;47.514;19.056;2023-02-02T10:09:39;99971.47;;;16.37;35.32
50859;BME280;36826;47.514;19.056;2023-02-02T10:14:48;100007.44;;;16.06;36.14
50859;BME280;36826;47.514;19.056;2023-02-02T10:19:42;100008.66;;;16.58;35.37
50859;BME280;36826;47.514;19.056;2023-02-02T10:22:11;99994.94;;;16.83;35.77
50859;BME280;36826;47.514;19.056;2023-02-02T10:24:39;99999.81;;;17.11;35.14
50859;BME280;36826;47.514;19.056;2023-02-02T10:27:05;99988.56;;;17.37;34.79
50859;BME280;36826;47.514;19.056;2023-02-02T10:32:24;99993.94;;;16.84;35.94
50859;BME280;36826;47.514;19.056;2023-02-02T10:45:36;99962.25;;;16.93;35.76
50859;BME280;36826;47.514;19.056;2023-02-02T10:48:04;99960.25;;;15.93;36.51
50859;BME280;36826;47.514;19.056;2023-02-02T10:50:36;99964.06;;;16.31;37.08
50859;BME280;36826;47.514;19.056;2023-02-02T10:53:02;99951.19;;;16.09;36.70
50859;BME280;36826;47.514;19.056;2023-02-02T11:00:47;99965.16;;;15.82;37.92
50859;BME280;36826;47.514;19.056;2023-02-02T11:03:15;99964.50;;;16.19;36.91
50859;BME280;36826;47.514;19.056;2023-02-02T11:05:41;99972.06;;;16.24;36.98
50859;BME280;36826;47.514;19.056;2023-02-02T11:08:30;99957.41;;;16.65;36.75
50859;BME280;36826;47.514;19.056;2023-02-02T11:10:57;99964.16;;;15.10;38.43
50859;BME280;36826;47.514;19.056;2023-02-02T11:13:35;99961.81;;;16.11;37.28
50859;BME280;36826;47.514;19.056;2023-02-02T11:16:17;99969.78;;;16.82;36.65
50859;BME280;36826;47.514;19.056;2023-02-02T11:18:43;99979.03;;;16.18;37.32
50859;BME280;36826;47.514;19.056;2023-02-02T11:21:30;99972.66;;;16.34;36.91
50859;BME280;36826;47.514;19.056;2023-02-02T11:26:23;99984.28;;;16.12;37.37
50859;BME280;36826;47.514;19.056;2023-02-02T11:28:49;99986.19;;;16.03;37.57
50859;BME280;36826;47.514;19.056;2023-02-02T11:31:29;99988.03;;;16.57;36.59
50859;BME280;36826;47.514;19.056;2023-02-02T11:34:04;99994.09;;;17.06;36.72
50859;BME280;36826;47.514;19.056;2023-02-02T11:36:32;99994.16;;;16.74;36.98
50859;BME280;36826;47.514;19.056;2023-02-02T11:42:00;99994.63;;;17.84;35.43
50859;BME280;36826;47.514;19.056;2023-02-02T11:44:26;100004.81;;;17.67;35.66
50859;BME280;36826;47.514;19.056;2023-02-02T11:46:52;100009.31;;;17.75;35.20
50859;BME280;36826;47.514;19.056;2023-02-02T11:49:21;100001.59;;;18.60;34.58
50859;BME280;36826;47.514;19.056;2023-02-02T11:52:01;100015.88;;;17.12;35.88
50859;BME280;36826;47.514;19.056;2023-02-02T11:54:29;100018.03;;;18.00;35.37
50859;BME280;36826;47.514;19.056;2023-02-02T11:56:58;100023.69;;;17.75;35.32
50859;BME280;36826;47.514;19.056;2023-02-02T11:59:31;100029.81;;;18.29;34.68
50859;BME280;36826;47.514;19.056;2023-02-02T12:04:41;100026.25;;;18.44;34.69
50859;BME280;36826;47.514;19.056;2023-02-02T12:09:50;100019.59;;;17.11;35.95
50859;BME280;36826;47.514;19.056;2023-02-02T12:17:32;100014.91;;;17.58;35.66
50859;BME280;36826;47.514;19.056;2023-02-02T12:36:00;100017.06;;;17.63;35.58
50859;BME280;36826;47.514;19.056;2023-02-02T12:41:24;100016.22;;;16.63;36.50
50859;BME280;36826;47.514;19.056;2023-02-02T12:44:43;100017.63;;;16.59;36.98
50859;BME280;36826;47.514;19.056;2023-02-02T12:46:52;100007.72;;;16.19;37.66
50859;BME280;36826;47.514;19.056;2023-02-02T13:04:39;100030.72;;;17.16;36.88
50859;BME280;36826;47.514;19.056;2023-02-02T13:12:07;100019.50;;;16.26;37.84
50859;BME280;36826;47.514;19.056;2023-02-02T13:14:42;100023.59;;;15.66;39.09
50859;BME280;36826;47.514;19.056;2023-02-02T13:17:11;100043.63;;;16.60;37.96
50859;BME280;36826;47.514;19.056;2023-02-02T13:19:42;100027.13;;;16.23;37.70
50859;BME280;36826;47.514;19.056;2023-02-02T13:22:16;100022.66;;;15.99;37.83
50859;BME280;36826;47.514;19.056;2023-02-02T13:24:44;100051.31;;;16.16;37.67
50859;BME280;36826;47.514;19.056;2023-02-02T13:27:12;100019.00;;;16.23;37.79
50859;BME280;36826;47.514;19.056;2023-02-02T13:29:40;100026.78;;;15.78;37.77
50859;BME280;36826;47.514;19.056;2023-02-02T13:32:10;100039.31;;;15.62;38.30
50859;BME280;36826;47.514;19.056;2023-02-02T13:34:49;100031.47;;;15.92;37.99
50859;BME280;36826;47.514;19.056;2023-02-02T13:37:36;100041.03;;;16.12;37.80
50859;BME280;36826;47.514;19.056;2023-02-02T13:44:57;100030.47;;;16.56;37.77
50859;BME280;36826;47.514;19.056;2023-02-02T13:47:36;100034.28;;;16.39;37.96
50859;BME280;36826;47.514;19.056;2023-02-02T13:50:05;100014.28;;;16.48;37.42
50859;BME280;36826;47.514;19.056;2023-02-02T14:00:26;100041.78;;;16.60;37.47
50859;BME280;36826;47.514;19.056;2023-02-02T14:03:04;100038.66;;;16.71;37.69
50859;BME280;36826;47.514;19.056;2023-02-02T14:08:06;100045.69;;;17.27;36.48
50859;BME280;36826;47.514;19.056;2023-02-02T14:10:44;100046.53;;;17.43;36.63
50859;BME280;36826;47.514;19.056;2023-02-02T14:13:23;100055.16;;;16.53;37.49
50859;BME280;36826;47.514;19.056;2023-02-02T14:16:19;100037.59;;;17.04;37.20
50859;BME280;36826;47.514;19.056;2023-02-02T14:32:26;100053.53;;;16.67;37.82
50859;BME280;36826;47.514;19.056;2023-02-02T14:34:41;100056.63;;;16.64;37.75
50859;BME280;36826;47.514;19.056;2023-02-02T14:45:25;100062.66;;;16.12;38.17
50859;BME280;36826;47.514;19.056;2023-02-02T14:47:51;100052.88;;;16.42;37.89
50859;BME280;36826;47.514;19.056;2023-02-02T14:50:31;100055.38;;;15.06;39.83
50859;BME280;36826;47.514;19.056;2023-02-02T14:53:05;100061.53;;;16.29;38.02
50859;BME280;36826;47.514;19.056;2023-02-02T14:55:33;100070.50;;;16.21;38.12
50859;BME280;36826;47.514;19.056;2023-02-02T14:58:00;100069.47;;;16.31;38.03
50859;BME280;36826;47.514;19.056;2023-02-02T15:00:30;100070.09;;;16.01;37.97
50859;BME280;36826;47.514;19.056;2023-02-02T15:03:18;100079.78;;;15.87;37.83
50859;BME280;36826;47.514;19.056;2023-02-02T15:05:42;100076.06;;;15.72;38.69
50859;BME280;36826;47.514;19.056;2023-02-02T15:08:19;100073.69;;;15.93;38.02
50859;BME280;36826;47.514;19.056;2023-02-02T15:13:15;100071.34;;;15.65;38.97
50859;BME280;36826;47.514;19.056;2023-02-02T15:15:43;100089.91;;;15.93;38.99
50859;BME280;36826;47.514;19.056;2023-02-02T15:18:14;100085.53;;;15.68;38.47
50859;BME280;36826;47.514;19.056;2023-02-02T15:20:44;100088.22;;;15.92;38.81
50859;BME280;36826;47.514;19.056;2023-02-02T15:26:01;100098.66;;;15.87;38.46
50859;BME280;36826;47.514;19.056;2023-02-02T15:31:01;100106.88;;;16.50;38.58
50859;BME280;36826;47.514;19.056;2023-02-02T15:33:29;100112.28;;;16.50;38.04
50859;BME280;36826;47.514;19.056;2023-02-02T15:35:58;100114.50;;;15.99;38.70
50859;BME280;36826;47.514;19.056;2023-02-02T15:38:34;100114.47;;;16.15;38.53